createdAt,value
2024-01-20T00:00:16.714Z,85.96
2024-01-20T00:02:44.723Z,86.35
2024-01-20T00:05:13.019Z,86.44
2024-01-20T00:07:40.109Z,86.06
2024-01-20T00:10:12.166Z,85.94
2024-01-20T00:12:40.763Z,85.83
2024-01-20T00:15:11.776Z,85.92
2024-01-20T00:17:40.069Z,85.91
2024-01-20T00:20:07.351Z,86.21
2024-01-20T00:22:34.210Z,86.29
2024-01-20T00:25:03.350Z,86.31
2024-01-20T00:27:32.120Z,86.13
2024-01-20T00:29:59.709Z,86.26
2024-01-20T00:32:26.617Z,86.21
2024-01-20T00:35:00.609Z,86.14
2024-01-20T00:37:34.556Z,86.37
2024-01-20T00:40:01.156Z,86.28
2024-01-20T00:42:27.756Z,86.44
2024-01-20T00:44:54.320Z,86.43
2024-01-20T00:47:21.624Z,86.79
2024-01-20T00:49:49.052Z,86.61
2024-01-20T00:52:16.405Z,87.23
2024-01-20T00:54:42.978Z,86.81
2024-01-20T00:57:09.932Z,87.03
2024-01-20T00:59:36.500Z,86.84
2024-01-20T01:02:03.296Z,86.70
2024-01-20T01:04:29.960Z,86.53
2024-01-20T01:06:56.479Z,86.70
2024-01-20T01:09:23.035Z,86.44
2024-01-20T01:11:49.695Z,86.36
2024-01-20T01:14:16.384Z,86.69
2024-01-20T01:16:43.127Z,86.44
2024-01-20T01:19:10.143Z,86.85
2024-01-20T01:21:36.703Z,86.77
2024-01-20T01:24:04.417Z,86.58
2024-01-20T01:26:33.083Z,86.80
2024-01-20T01:29:00.028Z,86.34
2024-01-20T01:31:26.669Z,86.54
2024-01-20T01:33:53.326Z,86.78
2024-01-20T01:36:19.979Z,86.90
2024-01-20T01:38:47.116Z,86.78
2024-01-20T01:41:14.403Z,86.98
2024-01-20T01:43:41.082Z,87.07
2024-01-20T01:46:08.080Z,86.65
2024-01-20T01:48:35.208Z,86.64
2024-01-20T01:51:05.258Z,86.46
2024-01-20T01:53:35.042Z,86.56
2024-01-20T01:56:02.576Z,86.37
2024-01-20T01:58:30.481Z,86.44
2024-01-20T02:00:57.370Z,86.40
2024-01-20T02:03:24.621Z,86.28
2024-01-20T02:05:51.626Z,86.59
2024-01-20T02:08:19.200Z,86.47
2024-01-20T02:10:48.160Z,86.46
2024-01-20T02:13:15.036Z,86.29
2024-01-20T02:15:41.788Z,86.56
2024-01-20T02:18:08.650Z,86.70
2024-01-20T02:20:35.511Z,86.73
2024-01-20T02:23:02.141Z,86.95
2024-01-20T02:25:28.924Z,87.16
2024-01-20T02:27:55.443Z,87.34
2024-01-20T02:30:22.036Z,87.66
2024-01-20T02:32:48.706Z,88.02
2024-01-20T02:35:17.624Z,88.15
2024-01-20T02:37:44.232Z,88.31
2024-01-20T02:40:11.826Z,88.08
2024-01-20T02:42:38.429Z,88.10
2024-01-20T02:45:06.828Z,88.22
2024-01-20T02:47:33.440Z,88.09
2024-01-20T02:50:00.091Z,88.20
2024-01-20T02:52:27.028Z,88.34
2024-01-20T02:54:53.555Z,88.43
2024-01-20T02:57:20.380Z,88.58
2024-01-20T02:59:47.062Z,88.84
2024-01-20T03:02:13.597Z,88.66
2024-01-20T03:04:40.128Z,88.59
2024-01-20T03:07:06.710Z,88.71
2024-01-20T03:09:33.273Z,88.90
2024-01-20T03:12:00.219Z,88.83
2024-01-20T03:14:26.952Z,89.09
2024-01-20T03:16:53.459Z,88.81
2024-01-20T03:19:20.274Z,88.45
2024-01-20T03:21:46.844Z,88.46
2024-01-20T03:24:13.537Z,88.59
2024-01-20T03:26:40.131Z,88.80
2024-01-20T03:29:06.903Z,88.92
2024-01-20T03:31:33.482Z,88.83
2024-01-20T03:34:00.217Z,89.01
2024-01-20T03:36:26.834Z,89.04
2024-01-20T03:38:53.545Z,89.15
2024-01-20T03:41:20.090Z,89.34
2024-01-20T03:43:46.644Z,89.38
2024-01-20T03:46:13.277Z,89.72
2024-01-20T03:48:40.633Z,89.59
2024-01-20T03:51:07.365Z,89.47
2024-01-20T03:53:33.963Z,89.23
2024-01-20T03:56:02.644Z,88.83
2024-01-20T03:58:29.301Z,88.88
2024-01-20T04:00:55.845Z,88.95
2024-01-20T04:03:22.483Z,88.88
2024-01-20T04:05:49.061Z,88.75
2024-01-20T04:08:15.832Z,88.85
2024-01-20T04:10:42.548Z,89.16
2024-01-20T04:13:09.460Z,88.61
2024-01-20T04:15:36.088Z,88.85
2024-01-20T04:18:02.842Z,88.80
2024-01-20T04:20:29.474Z,89.03
2024-01-20T04:22:56.008Z,89.30
2024-01-20T04:25:22.568Z,89.68
2024-01-20T04:27:49.114Z,89.62
2024-01-20T04:30:15.768Z,89.17
2024-01-20T04:32:42.369Z,88.96
2024-01-20T04:35:09.377Z,89.10
2024-01-20T04:37:38.009Z,89.20
2024-01-20T04:40:04.854Z,89.06
2024-01-20T04:42:31.582Z,88.92
2024-01-20T04:44:59.011Z,89.03
2024-01-20T04:47:25.742Z,88.75
2024-01-20T04:49:54.776Z,88.87
2024-01-20T04:52:21.432Z,89.08
2024-01-20T04:54:48.018Z,88.69
2024-01-20T04:57:15.002Z,88.72
2024-01-20T04:59:41.712Z,88.63
2024-01-20T05:02:08.236Z,88.53
2024-01-20T05:04:34.828Z,88.15
2024-01-20T05:07:01.501Z,88.24
2024-01-20T05:09:28.187Z,88.08
2024-01-20T05:11:54.824Z,88.02
2024-01-20T05:14:21.955Z,88.06
2024-01-20T05:16:48.560Z,88.05
2024-01-20T05:19:15.353Z,88.02
2024-01-20T05:21:42.061Z,87.69
2024-01-20T05:24:08.831Z,87.84
2024-01-20T05:26:35.483Z,88.10
2024-01-20T05:29:02.007Z,87.90
2024-01-20T05:31:32.928Z,87.98
2024-01-20T05:34:00.392Z,88.08
2024-01-20T05:36:27.539Z,88.18
2024-01-20T05:38:54.524Z,88.38
2024-01-20T05:41:21.152Z,88.51
2024-01-20T05:43:47.775Z,88.56
2024-01-20T05:46:14.345Z,88.92
2024-01-20T05:48:41.038Z,89.12
2024-01-20T05:51:08.180Z,89.32
2024-01-20T05:53:34.839Z,89.23
2024-01-20T05:56:01.422Z,89.51
2024-01-20T05:58:28.052Z,89.51
2024-01-20T06:00:55.648Z,89.69
2024-01-20T06:03:22.452Z,89.78
2024-01-20T06:05:49.893Z,89.95
2024-01-20T06:08:16.430Z,90.29
2024-01-20T06:10:43.030Z,90.44
2024-01-20T06:13:09.583Z,90.37
2024-01-20T06:15:36.268Z,90.35
2024-01-20T06:18:03.163Z,90.08
2024-01-20T06:20:29.724Z,90.12
2024-01-20T06:22:56.390Z,90.14
2024-01-20T06:25:22.959Z,90.35
2024-01-20T06:27:49.487Z,90.33
2024-01-20T06:30:16.288Z,90.45
2024-01-20T06:32:42.921Z,90.93
2024-01-20T06:35:09.744Z,90.93
2024-01-20T06:37:36.373Z,90.98
2024-01-20T06:40:03.242Z,90.95
2024-01-20T06:42:29.870Z,90.79
2024-01-20T06:44:58.011Z,90.74
2024-01-20T06:47:27.280Z,90.48
2024-01-20T06:49:54.847Z,90.66
2024-01-20T06:52:21.887Z,91.00
2024-01-20T06:54:49.296Z,91.13
2024-01-20T06:57:15.888Z,91.20
2024-01-20T06:59:42.449Z,91.34
2024-01-20T07:02:09.525Z,91.79
2024-01-20T07:04:36.144Z,91.53
2024-01-20T07:07:02.719Z,91.31
2024-01-20T07:09:29.438Z,91.07
2024-01-20T07:11:58.924Z,91.06
2024-01-20T07:14:26.944Z,90.66
2024-01-20T07:16:53.794Z,90.53
2024-01-20T07:19:20.355Z,90.16
2024-01-20T07:21:46.919Z,90.05
2024-01-20T07:24:13.913Z,90.06
2024-01-20T07:26:40.631Z,89.93
2024-01-20T07:29:07.230Z,90.05
2024-01-20T07:31:33.768Z,90.33
2024-01-20T07:34:00.488Z,90.11
2024-01-20T07:36:27.160Z,89.78
2024-01-20T07:38:53.796Z,89.89
2024-01-20T07:41:20.906Z,89.68
2024-01-20T07:43:47.482Z,89.79
2024-01-20T07:46:14.104Z,89.53
2024-01-20T07:48:40.914Z,89.79
2024-01-20T07:51:08.723Z,89.53
2024-01-20T07:53:35.364Z,89.24
2024-01-20T07:56:01.982Z,89.63
2024-01-20T07:58:28.527Z,89.34
2024-01-20T08:00:55.162Z,89.69
2024-01-20T08:03:21.947Z,89.66
2024-01-20T08:05:48.710Z,89.62
2024-01-20T08:08:15.342Z,89.44
2024-01-20T08:10:41.931Z,89.41
2024-01-20T08:13:08.530Z,89.32
2024-01-20T08:15:35.074Z,89.36
2024-01-20T08:18:01.865Z,89.05
2024-01-20T08:20:28.637Z,89.09
2024-01-20T08:22:55.208Z,89.21
2024-01-20T08:25:21.767Z,88.98
2024-01-20T08:27:48.381Z,89.07
2024-01-20T08:30:15.423Z,88.99
2024-01-20T08:32:42.661Z,88.83
2024-01-20T08:35:11.030Z,88.77
2024-01-20T08:37:37.610Z,88.73
2024-01-20T08:40:04.536Z,88.71
2024-01-20T08:42:31.059Z,88.56
2024-01-20T08:44:57.716Z,88.30
2024-01-20T08:47:24.630Z,88.76
2024-01-20T08:49:53.202Z,88.61
2024-01-20T08:52:20.492Z,88.55
2024-01-20T08:54:48.177Z,88.64
2024-01-20T08:57:14.934Z,88.41
2024-01-20T08:59:41.548Z,88.10
2024-01-20T09:02:08.317Z,87.92
2024-01-20T09:04:35.847Z,87.72
2024-01-20T09:07:02.703Z,87.57
2024-01-20T09:09:29.454Z,87.44
2024-01-20T09:11:56.140Z,87.43
2024-01-20T09:14:22.695Z,87.06
2024-01-20T09:16:49.812Z,87.22
2024-01-20T09:19:17.017Z,87.73
2024-01-20T09:21:47.430Z,87.40
2024-01-20T09:24:14.842Z,87.14
2024-01-20T09:26:41.603Z,87.19
2024-01-20T09:29:08.167Z,87.37
2024-01-20T09:31:34.787Z,87.26
2024-01-20T09:34:01.420Z,87.33
2024-01-20T09:36:29.004Z,87.41
2024-01-20T09:38:55.643Z,87.08
2024-01-20T09:41:22.641Z,87.24
2024-01-20T09:43:49.397Z,87.28
2024-01-20T09:46:16.497Z,87.00
2024-01-20T09:48:44.560Z,86.55
2024-01-20T09:51:11.621Z,86.28
2024-01-20T09:53:39.834Z,86.33
2024-01-20T09:56:06.995Z,86.01
2024-01-20T09:58:38.372Z,86.53
2024-01-20T10:01:05.722Z,86.10
2024-01-20T10:03:35.792Z,86.11
2024-01-20T10:06:02.676Z,86.09
2024-01-20T10:08:29.330Z,85.80
2024-01-20T10:11:05.699Z,84.96
2024-01-20T10:13:32.600Z,83.69
2024-01-20T10:15:59.448Z,81.56
2024-01-20T10:18:26.194Z,81.03
2024-01-20T10:21:07.273Z,81.63
2024-01-20T10:23:38.506Z,82.16
2024-01-20T10:26:06.620Z,81.65
2024-01-20T10:28:34.708Z,80.93
2024-01-20T10:31:09.199Z,80.65
2024-01-20T10:33:36.419Z,81.16
2024-01-20T10:36:04.839Z,81.58
2024-01-20T10:38:36.705Z,82.07
2024-01-20T10:41:04.698Z,82.41
2024-01-20T10:43:40.441Z,82.65
2024-01-20T10:46:16.126Z,82.60
2024-01-20T10:48:47.936Z,82.56
2024-01-20T10:51:19.815Z,82.59
2024-01-20T10:53:47.978Z,83.34
2024-01-20T10:56:15.329Z,82.91
2024-01-20T10:58:49.311Z,82.86
2024-01-20T11:01:16.526Z,83.03
2024-01-20T11:03:43.393Z,83.51
2024-01-20T11:06:21.481Z,83.65
2024-01-20T11:08:52.505Z,83.20
2024-01-20T11:11:20.872Z,83.65
2024-01-20T11:13:48.874Z,83.14
2024-01-20T11:16:22.931Z,82.82
2024-01-20T11:18:49.937Z,82.90
2024-01-20T11:21:18.159Z,82.78
2024-01-20T11:24:02.809Z,82.68
2024-01-20T11:26:34.368Z,82.47
2024-01-20T11:29:02.816Z,82.43
2024-01-20T11:31:31.751Z,82.70
2024-01-20T11:34:03.695Z,82.15
2024-01-20T11:36:31.468Z,81.24
2024-01-20T11:38:59.534Z,81.07
2024-01-20T11:41:26.516Z,81.20
2024-01-20T11:43:53.125Z,81.09
2024-01-20T11:46:20.730Z,81.33
2024-01-20T11:48:51.003Z,81.26
2024-01-20T11:51:17.888Z,82.12
2024-01-20T11:53:45.229Z,81.68
2024-01-20T11:56:11.832Z,81.66
2024-01-20T11:58:38.893Z,81.32
2024-01-20T12:01:05.923Z,81.85
2024-01-20T12:03:32.823Z,81.55
2024-01-20T12:06:08.139Z,81.21
2024-01-20T12:08:37.626Z,81.79
2024-01-20T12:11:04.352Z,81.31
2024-01-20T12:13:33.992Z,80.90
2024-01-20T12:16:00.980Z,80.50
2024-01-20T12:18:27.777Z,80.72
2024-01-20T12:20:54.516Z,80.35
2024-01-20T12:23:21.563Z,79.62
2024-01-20T12:25:52.998Z,79.16
2024-01-20T12:28:19.819Z,79.42
2024-01-20T12:30:46.654Z,79.31
2024-01-20T12:33:13.448Z,79.73
2024-01-20T12:35:40.059Z,79.29
2024-01-20T12:38:06.636Z,79.38
2024-01-20T12:40:33.502Z,77.86
2024-01-20T12:43:00.192Z,76.32
2024-01-20T12:45:26.754Z,75.74
2024-01-20T12:47:53.655Z,74.71
2024-01-20T12:50:20.230Z,74.19
2024-01-20T12:52:47.190Z,74.29
2024-01-20T12:55:13.762Z,74.88
2024-01-20T12:57:40.537Z,75.21
2024-01-20T13:00:07.927Z,75.32
2024-01-20T13:02:34.501Z,75.35
2024-01-20T13:05:01.089Z,75.88
2024-01-20T13:07:27.820Z,76.30
2024-01-20T13:09:54.743Z,76.62
2024-01-20T13:12:21.870Z,75.57
2024-01-20T13:14:48.478Z,75.18
2024-01-20T13:17:15.005Z,75.81
2024-01-20T13:19:41.884Z,75.60
2024-01-20T13:22:08.579Z,75.79
2024-01-20T13:24:35.143Z,76.18
2024-01-20T13:27:01.754Z,76.91
2024-01-20T13:29:28.379Z,77.27
2024-01-20T13:31:55.151Z,77.50
2024-01-20T13:34:21.861Z,78.08
2024-01-20T13:36:48.617Z,78.55
2024-01-20T13:39:15.717Z,78.08
2024-01-20T13:41:42.440Z,78.67
2024-01-20T13:44:08.990Z,78.44
2024-01-20T13:46:35.570Z,78.33
2024-01-20T13:49:05.185Z,78.23
2024-01-20T13:51:33.078Z,78.06
2024-01-20T13:54:01.050Z,78.44
2024-01-20T13:56:27.710Z,78.23
2024-01-20T13:58:55.032Z,78.71
2024-01-20T14:01:23.373Z,78.61
2024-01-20T14:03:50.786Z,79.14
2024-01-20T14:06:17.854Z,78.71
2024-01-20T14:08:44.559Z,78.97
2024-01-20T14:11:11.096Z,79.05
2024-01-20T14:13:37.717Z,78.89
2024-01-20T14:16:04.728Z,79.47
2024-01-20T14:18:31.447Z,79.54
2024-01-20T14:20:58.240Z,79.79
2024-01-20T14:23:25.148Z,79.89
2024-01-20T14:25:51.742Z,80.11
2024-01-20T14:28:18.837Z,80.43
2024-01-20T14:30:46.160Z,80.50
2024-01-20T14:33:13.063Z,80.48
2024-01-20T14:35:39.833Z,80.93
2024-01-20T14:38:06.473Z,81.24
2024-01-20T14:40:33.029Z,81.50
2024-01-20T14:42:59.545Z,82.03
2024-01-20T14:45:26.395Z,81.82
2024-01-20T14:47:52.960Z,82.13
2024-01-20T14:50:19.593Z,82.20
2024-01-20T14:52:46.151Z,82.00
2024-01-20T14:55:12.786Z,82.08
2024-01-20T14:57:40.402Z,82.43
2024-01-20T15:00:09.911Z,82.20
2024-01-20T15:02:36.613Z,82.27
2024-01-20T15:05:03.394Z,82.94
2024-01-20T15:07:33.940Z,83.44
2024-01-20T15:10:02.148Z,83.34
2024-01-20T15:12:30.008Z,83.86
2024-01-20T15:14:57.243Z,84.39
2024-01-20T15:17:23.938Z,84.72
2024-01-20T15:19:51.069Z,84.68
2024-01-20T15:22:18.657Z,84.81
2024-01-20T15:24:45.773Z,84.94
2024-01-20T15:27:12.609Z,85.04
2024-01-20T15:29:39.249Z,85.05
2024-01-20T15:32:06.344Z,85.17
2024-01-20T15:34:33.035Z,85.37
2024-01-20T15:36:59.663Z,85.15
2024-01-20T15:39:26.380Z,85.32
2024-01-20T15:41:53.348Z,85.07
2024-01-20T15:44:19.896Z,84.38
2024-01-20T15:46:46.476Z,84.24
2024-01-20T15:49:13.228Z,84.35
2024-01-20T15:51:40.263Z,84.16
2024-01-20T15:54:06.872Z,84.05
2024-01-20T15:56:40.994Z,84.32
2024-01-20T15:59:07.507Z,84.15
2024-01-20T16:01:34.123Z,84.51
2024-01-20T16:04:00.827Z,84.25
2024-01-20T16:06:27.551Z,83.99
2024-01-20T16:08:57.463Z,84.50
2024-01-20T16:11:24.279Z,84.60
2024-01-20T16:13:50.885Z,84.29
2024-01-20T16:16:17.447Z,84.36
2024-01-20T16:18:44.093Z,84.24
2024-01-20T16:21:10.729Z,84.24
2024-01-20T16:23:37.267Z,84.50
2024-01-20T16:26:04.857Z,84.40
2024-01-20T16:28:33.551Z,84.25
2024-01-20T16:31:01.229Z,84.32
2024-01-20T16:33:28.141Z,84.64
2024-01-20T16:35:55.180Z,84.51
2024-01-20T16:38:22.053Z,84.67
2024-01-20T16:40:48.697Z,84.72
2024-01-20T16:43:15.357Z,85.30
2024-01-20T16:45:44.821Z,85.55
2024-01-20T16:48:11.754Z,86.01
2024-01-20T16:50:38.386Z,86.31
2024-01-20T16:53:07.795Z,86.43
2024-01-20T16:55:35.546Z,86.99
2024-01-20T16:58:02.218Z,87.26
2024-01-20T17:00:28.841Z,87.32
2024-01-20T17:02:56.932Z,87.27
2024-01-20T17:05:25.401Z,87.17
2024-01-20T17:07:52.540Z,87.53
2024-01-20T17:10:19.143Z,87.74
2024-01-20T17:12:45.706Z,87.84
2024-01-20T17:15:12.362Z,87.63
2024-01-20T17:17:38.908Z,87.43
2024-01-20T17:20:05.905Z,87.20
2024-01-20T17:22:32.677Z,86.93
2024-01-20T17:24:59.284Z,86.41
2024-01-20T17:27:25.836Z,86.50
2024-01-20T17:29:52.461Z,86.65
2024-01-20T17:32:19.052Z,86.70
2024-01-20T17:34:45.659Z,86.87
2024-01-20T17:37:12.276Z,86.97
2024-01-20T17:39:39.194Z,86.63
2024-01-20T17:42:06.145Z,86.52
2024-01-20T17:44:33.665Z,86.32
2024-01-20T17:47:00.956Z,86.43
2024-01-20T17:49:27.850Z,86.21
2024-01-20T17:51:54.887Z,86.45
2024-01-20T17:54:24.527Z,86.31
2024-01-20T17:56:53.052Z,86.29
2024-01-20T17:59:19.650Z,86.43
2024-01-20T18:01:46.274Z,86.58
2024-01-20T18:04:13.113Z,86.59
2024-01-20T18:06:40.002Z,86.99
2024-01-20T18:09:06.754Z,86.72
2024-01-20T18:11:33.473Z,86.32
2024-01-20T18:14:00.035Z,86.80
2024-01-20T18:16:26.835Z,86.31
2024-01-20T18:18:53.479Z,86.14
2024-01-20T18:21:20.819Z,86.57
2024-01-20T18:23:47.472Z,86.82
2024-01-20T18:26:14.042Z,86.46
2024-01-20T18:28:40.580Z,86.60
2024-01-20T18:31:08.627Z,86.88
2024-01-20T18:33:36.460Z,86.85
2024-01-20T18:36:03.596Z,87.11
2024-01-20T18:38:30.833Z,87.24
2024-01-20T18:40:57.500Z,87.44
2024-01-20T18:43:24.076Z,88.02
2024-01-20T18:45:51.130Z,88.47
2024-01-20T18:48:17.843Z,88.63
2024-01-20T18:50:44.556Z,88.71
2024-01-20T18:53:13.338Z,88.75
2024-01-20T18:55:41.466Z,88.85
2024-01-20T18:58:08.457Z,88.60
2024-01-20T19:00:35.982Z,89.00
2024-01-20T19:03:02.790Z,89.24
2024-01-20T19:05:29.477Z,89.59
2024-01-20T19:07:57.065Z,89.54
2024-01-20T19:10:23.809Z,89.21
2024-01-20T19:12:50.430Z,89.54
2024-01-20T19:15:17.299Z,89.31
2024-01-20T19:17:44.418Z,89.46
2024-01-20T19:20:11.160Z,89.77
2024-01-20T19:22:38.093Z,89.71
2024-01-20T19:25:05.639Z,89.72
2024-01-20T19:27:32.230Z,89.97
2024-01-20T19:29:58.802Z,90.04
2024-01-20T19:32:25.572Z,90.08
2024-01-20T19:34:52.165Z,90.38
2024-01-20T19:37:18.767Z,90.31
2024-01-20T19:39:46.139Z,90.12
2024-01-20T19:42:13.969Z,90.70
2024-01-20T19:44:40.572Z,91.27
2024-01-20T19:47:07.582Z,91.14
2024-01-20T19:49:34.452Z,91.14
2024-01-20T19:52:03.076Z,91.29
2024-01-20T19:54:30.215Z,91.38
2024-01-20T19:56:57.281Z,91.52
2024-01-20T19:59:23.904Z,91.89
2024-01-20T20:01:50.578Z,92.01
2024-01-20T20:04:18.640Z,92.04
2024-01-20T20:06:50.023Z,92.16
2024-01-20T20:09:18.234Z,92.19
2024-01-20T20:11:44.967Z,93.03
2024-01-20T20:14:12.904Z,92.93
2024-01-20T20:16:40.618Z,93.10
2024-01-20T20:19:07.593Z,92.98
2024-01-20T20:21:34.436Z,92.96
2024-01-20T20:24:01.152Z,93.17
2024-01-20T20:26:27.690Z,93.24
2024-01-20T20:28:54.216Z,93.77
2024-01-20T20:31:23.181Z,94.35
2024-01-20T20:33:50.304Z,94.54
2024-01-20T20:36:20.109Z,94.40
2024-01-20T20:38:47.231Z,94.61
2024-01-20T20:41:13.762Z,94.66
2024-01-20T20:43:40.317Z,95.44
2024-01-20T20:46:06.979Z,95.13
2024-01-20T20:48:33.679Z,95.00
2024-01-20T20:51:00.294Z,94.99
2024-01-20T20:53:26.901Z,94.68
2024-01-20T20:55:53.552Z,94.54
2024-01-20T20:58:20.105Z,94.98
2024-01-20T21:00:46.745Z,94.84
2024-01-20T21:03:13.809Z,94.88
2024-01-20T21:05:40.778Z,95.27
2024-01-20T21:08:07.423Z,95.90
2024-01-20T21:10:34.020Z,95.86
2024-01-20T21:13:00.843Z,95.34
2024-01-20T21:15:27.682Z,95.28
2024-01-20T21:17:54.418Z,95.62
2024-01-20T21:20:21.208Z,95.61
2024-01-20T21:22:47.870Z,96.17
2024-01-20T21:25:14.744Z,95.83
2024-01-20T21:27:41.502Z,96.04
2024-01-20T21:30:08.773Z,95.71
2024-01-20T21:32:35.574Z,95.70
2024-01-20T21:35:02.903Z,95.75
2024-01-20T21:37:29.617Z,96.06
2024-01-20T21:39:56.347Z,95.82
2024-01-20T21:42:22.980Z,95.96
2024-01-20T21:44:49.589Z,96.20
2024-01-20T21:47:16.175Z,96.29
2024-01-20T21:49:42.803Z,96.38
2024-01-20T21:52:09.386Z,95.97
2024-01-20T21:54:36.006Z,96.18
2024-01-20T21:57:02.665Z,96.53
2024-01-20T21:59:29.285Z,96.25
2024-01-20T22:01:55.878Z,96.08
2024-01-20T22:04:22.623Z,96.10
2024-01-20T22:06:51.217Z,95.89
2024-01-20T22:09:18.310Z,95.90
2024-01-20T22:11:45.112Z,96.14
2024-01-20T22:14:11.951Z,95.83
2024-01-20T22:16:38.493Z,96.09
2024-01-20T22:19:05.281Z,96.41
2024-01-20T22:21:31.967Z,95.86
2024-01-20T22:23:59.407Z,95.83
2024-01-20T22:26:25.982Z,95.44
2024-01-20T22:28:55.054Z,95.56
2024-01-20T22:31:23.101Z,95.67
2024-01-20T22:33:49.778Z,95.35
2024-01-20T22:36:16.447Z,95.63
2024-01-20T22:38:43.445Z,95.36
2024-01-20T22:41:10.136Z,95.37
2024-01-20T22:43:37.186Z,95.26
2024-01-20T22:46:04.457Z,94.74
2024-01-20T22:48:36.343Z,94.90
2024-01-20T22:51:03.589Z,94.88
2024-01-20T22:53:31.850Z,94.50
2024-01-20T22:55:58.390Z,94.54
2024-01-20T22:58:25.112Z,94.85
2024-01-20T23:00:51.894Z,94.85
2024-01-20T23:03:18.630Z,94.92
2024-01-20T23:05:45.725Z,94.93
2024-01-20T23:08:17.053Z,95.63
2024-01-20T23:10:43.639Z,95.61
2024-01-20T23:13:10.328Z,95.56
2024-01-20T23:15:37.091Z,95.69
2024-01-20T23:18:03.827Z,96.01
2024-01-20T23:20:30.840Z,95.85
2024-01-20T23:22:57.396Z,95.95
2024-01-20T23:25:23.922Z,96.02
2024-01-20T23:27:50.463Z,96.08
2024-01-20T23:30:18.421Z,96.10
2024-01-20T23:32:45.177Z,96.17
2024-01-20T23:35:11.971Z,96.38
2024-01-20T23:37:39.032Z,96.34
2024-01-20T23:40:06.074Z,96.58
2024-01-20T23:42:32.968Z,96.60
2024-01-20T23:44:59.731Z,96.73
2024-01-20T23:47:26.388Z,96.90
2024-01-20T23:49:53.028Z,97.02
2024-01-20T23:52:19.556Z,97.18
2024-01-20T23:54:46.129Z,97.30
2024-01-20T23:57:12.729Z,97.87
2024-01-20T23:59:39.297Z,97.86
